Time;durP1;ratioP1;P1;durP2;ratioP2;P2;SDS_P1;SDS_P2;PMS_P1;PMS_P2;Temp;Humidity;BMP_temperature;BMP_pressure;BME280_temperature;BME280_humidity;BME280_pressure;Samples;Min_cycle;Max_cycle;Signal;HPM_P1;HPM_P2
2023/12/25 00:02:27;;;;;;;4.27;1.50;;;11.70;99.90;;;;;;5085067;28;20288;-59
2023/12/25 00:04:55;;;;;;;1.43;1.30;;;11.70;99.90;;;;;;5084990;28;20268;-58
2023/12/25 00:07:23;;;;;;;3.00;1.50;;;11.70;99.90;;;;;;5087145;28;20268;-58
2023/12/25 00:09:51;;;;;;;1.43;1.33;;;11.70;99.90;;;;;;5086612;28;20215;-58
2023/12/25 00:12:23;;;;;;;2.90;1.50;;;11.70;99.90;;;;;;5088927;28;20302;-59
2023/12/25 00:14:51;;;;;;;2.93;1.30;;;11.70;99.90;;;;;;5083935;28;20685;-57
2023/12/25 00:17:20;;;;;;;1.60;1.20;;;11.60;99.90;;;;;;5092921;28;20226;-59
2023/12/25 00:19:48;;;;;;;2.70;1.50;;;11.60;99.90;;;;;;5092775;28;20230;-58
2023/12/25 00:22:17;;;;;;;2.20;1.20;;;11.70;99.90;;;;;;5086058;28;20220;-58
2023/12/25 00:24:45;;;;;;;1.77;1.43;;;11.70;99.90;;;;;;5083222;28;20231;-58
2023/12/25 00:27:13;;;;;;;1.30;1.30;;;11.70;99.90;;;;;;5085411;28;20268;-58
2023/12/25 00:29:43;;;;;;;3.23;1.40;;;11.70;99.90;;;;;;5093313;28;20227;-58
2023/12/25 00:32:11;;;;;;;5.40;1.40;;;11.70;99.90;;;;;;5084475;28;20282;-57
2023/12/25 00:34:39;;;;;;;2.03;1.40;;;11.70;99.90;;;;;;5088006;28;20192;-58
2023/12/25 00:37:07;;;;;;;2.83;1.50;;;11.70;99.90;;;;;;5089019;28;20215;-58
2023/12/25 00:39:36;;;;;;;2.97;1.40;;;11.70;99.90;;;;;;5091661;28;20695;-60
2023/12/25 00:42:04;;;;;;;3.07;1.93;;;11.70;99.90;;;;;;5086406;28;20310;-58
2023/12/25 00:44:32;;;;;;;1.43;1.40;;;11.70;99.90;;;;;;5087708;28;20227;-58
2023/12/25 00:47:04;;;;;;;2.00;1.20;;;11.70;99.90;;;;;;5087502;28;20222;-58
2023/12/25 00:49:33;;;;;;;3.73;1.40;;;11.70;99.90;;;;;;5085168;28;20198;-59
2023/12/25 00:52:01;;;;;;;1.60;1.50;;;11.70;99.90;;;;;;5087326;28;20227;-58
2023/12/25 00:54:31;;;;;;;1.77;1.40;;;11.70;99.90;;;;;;5085947;28;20229;-59
2023/12/25 00:56:59;;;;;;;1.53;1.43;;;11.70;99.90;;;;;;5086612;28;20268;-58
2023/12/25 00:59:28;;;;;;;2.73;1.50;;;11.70;99.90;;;;;;5091396;28;20227;-58
2023/12/25 01:01:56;;;;;;;3.33;1.63;;;11.70;99.90;;;;;;5093021;28;20302;-58
2023/12/25 01:04:26;;;;;;;4.73;1.63;;;11.70;99.90;;;;;;5087536;28;20219;-58
2023/12/25 01:06:54;;;;;;;2.03;1.33;;;11.70;99.90;;;;;;5085471;28;20238;-59
2023/12/25 01:09:22;;;;;;;3.63;1.50;;;11.70;99.90;;;;;;5085033;28;20227;-58
2023/12/25 01:11:51;;;;;;;3.00;1.67;;;11.70;99.90;;;;;;5088972;28;20227;-58
2023/12/25 01:14:19;;;;;;;6.63;1.40;;;11.70;99.90;;;;;;5089531;28;20235;-58
2023/12/25 01:16:47;;;;;;;3.20;1.60;;;11.80;99.90;;;;;;5083128;28;20195;-58
2023/12/25 01:19:15;;;;;;;2.43;1.30;;;11.80;99.90;;;;;;5091906;28;20228;-59
2023/12/25 01:21:45;;;;;;;5.60;1.53;;;11.80;99.90;;;;;;5088091;28;20231;-58
2023/12/25 01:24:13;;;;;;;3.20;1.60;;;11.80;99.90;;;;;;5088392;28;20222;-58
2023/12/25 01:26:41;;;;;;;8.77;1.80;;;11.90;99.90;;;;;;5090935;28;20310;-58
2023/12/25 01:29:10;;;;;;;4.33;1.40;;;11.90;99.90;;;;;;5086149;28;20554;-58
2023/12/25 01:31:38;;;;;;;3.70;1.53;;;11.90;99.90;;;;;;5087189;28;20542;-58
2023/12/25 01:34:06;;;;;;;1.50;1.30;;;12.00;99.90;;;;;;5083585;28;20223;-58
2023/12/25 01:36:35;;;;;;;2.23;1.20;;;12.00;99.90;;;;;;5085827;28;20276;-58
2023/12/25 01:39:05;;;;;;;4.93;1.27;;;12.00;99.90;;;;;;5089517;28;20211;-58
2023/12/25 01:41:33;;;;;;;2.97;1.30;;;12.10;99.90;;;;;;5085969;28;20235;-59
2023/12/25 01:44:01;;;;;;;6.10;1.23;;;12.10;99.90;;;;;;5083733;28;20191;-58
2023/12/25 01:46:34;;;;;;;2.53;1.20;;;12.10;99.90;;;;;;5084833;28;20233;-59
2023/12/25 01:49:02;;;;;;;1.70;0.97;;;12.10;99.90;;;;;;5085742;28;20222;-58
2023/12/25 01:51:31;;;;;;;1.87;1.23;;;12.20;99.90;;;;;;5085058;27;20302;-58
2023/12/25 01:54:01;;;;;;;1.90;1.10;;;12.20;99.90;;;;;;5081800;28;20226;-59
2023/12/25 01:56:31;;;;;;;4.20;1.43;;;12.20;99.90;;;;;;5085422;28;20238;-58
2023/12/25 01:59:02;;;;;;;3.37;1.30;;;12.20;99.90;;;;;;5082036;28;20195;-59
2023/12/25 02:01:30;;;;;;;1.93;1.20;;;12.20;99.90;;;;;;5089354;28;20265;-59
2023/12/25 02:03:59;;;;;;;1.57;1.23;;;12.20;99.90;;;;;;5088673;28;20226;-58
2023/12/25 02:06:28;;;;;;;1.10;1.00;;;12.20;99.90;;;;;;5090079;28;20215;-58
2023/12/25 02:08:57;;;;;;;1.20;1.10;;;12.20;99.90;;;;;;5086819;28;20226;-58
2023/12/25 02:11:25;;;;;;;2.43;1.13;;;12.20;99.90;;;;;;5089879;28;20698;-58
2023/12/25 02:13:57;;;;;;;0.90;0.90;;;12.20;99.90;;;;;;5086402;28;20283;-58
2023/12/25 02:16:26;;;;;;;1.20;1.10;;;12.20;99.90;;;;;;5084292;28;20226;-59
2023/12/25 02:18:54;;;;;;;1.63;1.20;;;12.30;99.90;;;;;;5085183;28;20220;-58
2023/12/25 02:21:23;;;;;;;1.70;1.03;;;12.30;99.90;;;;;;5084466;28;20628;-59
2023/12/25 02:23:57;;;;;;;1.20;1.10;;;12.30;99.90;;;;;;5087060;28;20216;-58
2023/12/25 02:26:27;;;;;;;1.30;1.30;;;12.20;99.90;;;;;;5085751;28;20227;-58
2023/12/25 02:28:55;;;;;;;1.10;1.10;;;12.10;99.90;;;;;;5083093;28;20218;-59
2023/12/25 02:31:25;;;;;;;1.50;1.10;;;12.10;99.90;;;;;;5089279;28;20215;-58
2023/12/25 02:33:53;;;;;;;1.50;1.00;;;12.10;99.90;;;;;;5089790;28;20221;-58
2023/12/25 02:36:22;;;;;;;1.80;1.10;;;12.10;99.90;;;;;;5087549;27;20310;-59
2023/12/25 02:38:50;;;;;;;1.70;1.40;;;12.00;99.90;;;;;;5096139;28;20216;-59
2023/12/25 02:41:18;;;;;;;2.83;1.20;;;12.00;99.90;;;;;;5100541;28;20246;-59
2023/12/25 02:43:48;;;;;;;1.00;1.00;;;12.00;99.90;;;;;;5091036;28;20191;-59
2023/12/25 02:46:16;;;;;;;3.27;1.23;;;12.00;99.90;;;;;;5090560;28;20222;-58
2023/12/25 02:48:44;;;;;;;2.10;1.10;;;11.90;99.90;;;;;;5092483;28;20234;-58
2023/12/25 02:51:13;;;;;;;1.20;1.00;;;12.00;99.90;;;;;;5093622;28;20219;-59
2023/12/25 02:53:41;;;;;;;1.10;1.10;;;12.00;99.90;;;;;;5085203;28;20227;-59
2023/12/25 02:56:09;;;;;;;1.00;1.00;;;11.90;99.90;;;;;;5089102;28;20187;-59
2023/12/25 02:58:37;;;;;;;0.93;0.90;;;11.90;99.90;;;;;;5086749;28;20681;-59
2023/12/25 03:01:07;;;;;;;1.00;1.00;;;11.90;99.90;;;;;;5090874;28;20212;-59
2023/12/25 03:03:35;;;;;;;1.17;1.00;;;11.90;99.90;;;;;;5089436;28;20223;-58
2023/12/25 03:06:04;;;;;;;1.37;1.30;;;11.80;99.90;;;;;;5091274;28;20238;-58
2023/12/25 03:08:33;;;;;;;1.03;1.03;;;11.80;99.90;;;;;;5086220;28;20377;-59
2023/12/25 03:11:01;;;;;;;1.37;1.27;;;11.80;99.90;;;;;;5090031;28;20588;-59
2023/12/25 03:13:29;;;;;;;1.20;1.10;;;11.80;99.90;;;;;;5090881;28;20199;-58
2023/12/25 03:15:57;;;;;;;1.10;1.10;;;11.80;99.90;;;;;;5092137;28;20219;-59
2023/12/25 03:18:28;;;;;;;1.00;1.00;;;11.80;99.90;;;;;;5085387;28;20308;-59
2023/12/25 03:20:57;;;;;;;1.23;1.10;;;11.80;99.90;;;;;;5088523;28;20222;-59
2023/12/25 03:23:25;;;;;;;1.23;1.00;;;11.80;99.90;;;;;;5088072;28;20228;-59
2023/12/25 03:25:53;;;;;;;1.00;1.00;;;11.70;99.90;;;;;;5090432;28;20195;-59
2023/12/25 03:28:23;;;;;;;1.13;1.10;;;11.70;99.90;;;;;;5090955;28;20227;-59
2023/12/25 03:30:51;;;;;;;1.33;1.30;;;11.70;99.90;;;;;;5090713;28;20220;-59
2023/12/25 03:33:19;;;;;;;2.00;1.50;;;11.70;99.90;;;;;;5092269;28;20211;-59
2023/12/25 03:35:49;;;;;;;1.00;1.00;;;11.70;99.90;;;;;;5084048;28;20760;-59
2023/12/25 03:38:19;;;;;;;1.00;1.00;;;11.70;99.90;;;;;;5089105;28;20227;-59
2023/12/25 03:40:47;;;;;;;1.50;1.20;;;11.70;99.90;;;;;;5093309;28;20187;-59
2023/12/25 03:43:15;;;;;;;1.00;1.00;;;11.70;99.90;;;;;;5085116;28;20216;-58
2023/12/25 03:45:43;;;;;;;1.07;1.00;;;11.70;99.90;;;;;;5085483;28;20594;-58
2023/12/25 03:48:12;;;;;;;1.00;1.00;;;11.70;99.90;;;;;;5083837;28;20770;-58
2023/12/25 03:50:40;;;;;;;1.20;1.13;;;11.70;99.90;;;;;;5091595;28;20221;-58
2023/12/25 03:53:10;;;;;;;1.67;1.20;;;11.70;99.90;;;;;;5090316;28;20286;-58
2023/12/25 03:55:41;;;;;;;1.17;1.17;;;11.70;99.90;;;;;;5094285;28;20531;-59
2023/12/25 03:58:10;;;;;;;1.10;1.07;;;11.70;99.90;;;;;;5089140;28;20226;-58
2023/12/25 04:00:39;;;;;;;0.93;0.93;;;11.70;99.90;;;;;;5090226;28;20690;-57
2023/12/25 04:03:07;;;;;;;1.10;1.10;;;11.70;99.90;;;;;;5093014;28;20251;-57
2023/12/25 04:05:35;;;;;;;1.70;0.93;;;11.70;99.90;;;;;;5085807;28;20211;-57
2023/12/25 04:08:04;;;;;;;0.80;0.80;;;11.60;99.90;;;;;;5090366;28;20322;-58
2023/12/25 04:10:34;;;;;;;0.97;0.93;;;11.60;99.90;;;;;;5082153;28;20199;-57
2023/12/25 04:13:03;;;;;;;1.43;1.13;;;11.60;99.90;;;;;;5087501;28;20227;-57
2023/12/25 04:15:31;;;;;;;1.20;1.20;;;11.60;99.90;;;;;;5090879;28;20216;-57
2023/12/25 04:17:59;;;;;;;1.20;1.10;;;11.60;99.90;;;;;;5088678;28;20744;-57
2023/12/25 04:20:28;;;;;;;1.10;1.10;;;11.60;99.90;;;;;;5093227;28;20251;-58
2023/12/25 04:22:56;;;;;;;3.50;1.30;;;11.60;99.90;;;;;;5087386;28;20211;-58
2023/12/25 04:25:24;;;;;;;1.30;1.20;;;11.60;99.90;;;;;;5089834;28;20314;-59
2023/12/25 04:27:54;;;;;;;1.23;1.20;;;11.60;99.90;;;;;;5087181;28;20223;-59
2023/12/25 04:30:22;;;;;;;1.17;1.10;;;11.70;99.90;;;;;;5089630;28;20239;-58
2023/12/25 04:32:50;;;;;;;1.10;1.10;;;11.70;99.90;;;;;;5081497;28;20318;-58
2023/12/25 04:35:19;;;;;;;1.20;1.20;;;11.60;99.90;;;;;;5082656;28;20226;-58
2023/12/25 04:37:47;;;;;;;1.27;1.10;;;11.60;99.90;;;;;;5081776;28;20321;-58
2023/12/25 04:40:15;;;;;;;1.27;1.13;;;11.60;99.90;;;;;;5088366;28;20215;-58
2023/12/25 04:42:44;;;;;;;1.23;1.10;;;11.60;99.90;;;;;;5090380;28;20303;-58
2023/12/25 04:45:13;;;;;;;1.10;1.10;;;11.60;99.90;;;;;;5089110;28;20293;-59
2023/12/25 04:47:42;;;;;;;1.10;1.10;;;11.60;99.90;;;;;;5090308;28;20223;-59
2023/12/25 04:50:10;;;;;;;1.77;0.87;;;11.60;99.90;;;;;;5088259;28;20230;-59
2023/12/25 04:52:38;;;;;;;0.97;0.97;;;11.60;99.90;;;;;;5083973;28;20203;-59
2023/12/25 04:55:07;;;;;;;1.00;1.00;;;11.60;99.90;;;;;;5083097;28;20628;-59
2023/12/25 04:57:35;;;;;;;1.10;1.07;;;11.60;99.90;;;;;;5084338;28;20226;-58
2023/12/25 05:00:04;;;;;;;1.00;1.00;;;11.60;99.90;;;;;;5084290;28;20217;-58
2023/12/25 05:02:34;;;;;;;0.80;0.80;;;11.60;99.90;;;;;;5086928;28;20256;-58
2023/12/25 05:05:03;;;;;;;1.10;1.10;;;11.60;99.90;;;;;;5089679;28;20214;-58
2023/12/25 05:07:31;;;;;;;0.93;0.93;;;11.60;99.90;;;;;;5090657;28;20195;-58
2023/12/25 05:09:59;;;;;;;0.87;0.87;;;11.60;99.90;;;;;;5084698;28;20211;-58
2023/12/25 05:12:27;;;;;;;1.03;0.80;;;11.60;99.90;;;;;;5084843;28;20561;-58
2023/12/25 05:14:55;;;;;;;0.90;0.90;;;11.60;99.90;;;;;;5087343;28;20685;-58
2023/12/25 05:17:24;;;;;;;0.87;0.80;;;11.60;99.90;;;;;;5092086;28;20223;-58
2023/12/25 05:19:54;;;;;;;0.90;0.90;;;11.60;99.90;;;;;;5092725;28;20198;-59
2023/12/25 05:22:22;;;;;;;0.80;0.80;;;11.60;99.90;;;;;;5087722;28;20222;-59
2023/12/25 05:24:50;;;;;;;1.00;1.00;;;11.60;99.90;;;;;;5077900;28;20237;-58
2023/12/25 05:27:19;;;;;;;1.00;1.00;;;11.60;99.90;;;;;;5088842;28;20239;-58
2023/12/25 05:29:47;;;;;;;0.90;0.90;;;11.60;99.90;;;;;;5090261;28;20224;-58
2023/12/25 05:32:15;;;;;;;0.73;0.73;;;11.60;99.90;;;;;;5090001;28;20187;-58
2023/12/25 05:34:44;;;;;;;0.80;0.80;;;11.60;99.90;;;;;;5082732;28;20215;-58
2023/12/25 05:37:13;;;;;;;0.80;0.80;;;11.60;99.90;;;;;;5088422;28;20211;-57
2023/12/25 05:39:41;;;;;;;0.70;0.70;;;11.70;99.90;;;;;;5088332;28;20227;-58
2023/12/25 05:42:10;;;;;;;0.90;0.90;;;11.70;99.90;;;;;;5087425;28;20632;-58
2023/12/25 05:44:59;;;;;;;1.43;0.90;;;11.70;99.90;;;;;;5088221;28;20227;-58
2023/12/25 05:47:27;;;;;;;0.80;0.80;;;11.70;99.90;;;;;;5089121;28;20215;-58
2023/12/25 05:49:56;;;;;;;1.50;0.80;;;11.70;99.90;;;;;;5088655;28;20250;-58
2023/12/25 05:52:26;;;;;;;0.77;0.77;;;11.70;99.90;;;;;;5088980;28;20290;-58
2023/12/25 05:54:54;;;;;;;0.83;0.83;;;11.70;99.90;;;;;;5086801;28;20225;-58
2023/12/25 05:57:23;;;;;;;0.80;0.80;;;11.70;99.90;;;;;;5088804;28;20699;-57
2023/12/25 05:59:51;;;;;;;0.90;0.90;;;11.70;99.90;;;;;;5084517;28;20223;-58
2023/12/25 06:02:19;;;;;;;0.90;0.90;;;11.60;99.90;;;;;;5088360;28;20228;-58
2023/12/25 06:04:48;;;;;;;1.40;0.80;;;11.70;99.90;;;;;;5090805;28;20215;-58
2023/12/25 06:07:16;;;;;;;0.90;0.90;;;11.70;99.90;;;;;;5080493;28;20224;-58
2023/12/25 06:09:46;;;;;;;0.87;0.87;;;11.70;99.90;;;;;;5090738;28;20211;-57
2023/12/25 06:12:14;;;;;;;0.80;0.80;;;11.70;99.90;;;;;;5091758;28;20223;-58
2023/12/25 06:14:42;;;;;;;1.13;0.90;;;11.70;99.90;;;;;;5094014;28;20226;-58
2023/12/25 06:17:10;;;;;;;0.70;0.70;;;11.70;99.90;;;;;;5097526;28;20763;-57
2023/12/25 06:19:38;;;;;;;1.00;1.00;;;11.70;99.90;;;;;;5093627;28;20533;-58
2023/12/25 06:22:07;;;;;;;1.60;0.90;;;11.70;99.90;;;;;;5090340;28;20230;-58
2023/12/25 06:24:35;;;;;;;0.90;0.90;;;11.70;99.90;;;;;;5094478;28;20227;-58
2023/12/25 06:27:05;;;;;;;1.50;0.90;;;11.70;99.90;;;;;;5095456;28;20219;-58
2023/12/25 06:29:33;;;;;;;0.80;0.80;;;11.70;99.90;;;;;;5091133;28;20230;-58
2023/12/25 06:32:02;;;;;;;0.70;0.70;;;11.70;99.90;;;;;;5094438;28;20572;-58
2023/12/25 06:34:31;;;;;;;0.80;0.80;;;11.70;99.90;;;;;;5096187;28;20223;-58
2023/12/25 06:36:59;;;;;;;0.83;0.83;;;11.70;99.90;;;;;;5092088;28;20340;-58
2023/12/25 06:39:27;;;;;;;0.90;0.90;;;11.70;99.90;;;;;;5092140;28;20215;-58
2023/12/25 06:41:56;;;;;;;0.73;0.73;;;11.70;99.90;;;;;;5090189;28;20215;-58
2023/12/25 06:44:25;;;;;;;0.80;0.80;;;11.80;99.90;;;;;;5090684;28;20791;-58
2023/12/25 06:46:54;;;;;;;0.80;0.80;;;11.80;99.90;;;;;;5091504;28;20206;-58
2023/12/25 06:49:22;;;;;;;1.33;0.60;;;11.80;99.90;;;;;;5089331;28;20215;-58
2023/12/25 06:51:50;;;;;;;0.70;0.70;;;11.80;99.90;;;;;;5087206;28;20245;-58
2023/12/25 06:54:19;;;;;;;0.80;0.80;;;11.80;99.90;;;;;;5094111;28;20239;-58
2023/12/25 06:56:47;;;;;;;0.80;0.80;;;11.70;99.90;;;;;;5090588;28;20316;-58
2023/12/25 06:59:15;;;;;;;0.80;0.80;;;11.70;99.90;;;;;;5094783;28;20175;-58
2023/12/25 07:01:46;;;;;;;0.77;0.70;;;11.80;99.90;;;;;;5089713;28;20553;-57
2023/12/25 07:04:14;;;;;;;0.80;0.80;;;11.70;99.90;;;;;;5079640;28;20234;-58
2023/12/25 07:06:42;;;;;;;0.80;0.80;;;11.70;99.90;;;;;;5082999;28;20216;-58
2023/12/25 07:09:14;;;;;;;0.80;0.80;;;11.70;99.90;;;;;;5086157;28;20673;-58
2023/12/25 07:11:42;;;;;;;0.80;0.80;;;11.70;99.90;;;;;;5091836;28;20215;-59
2023/12/25 07:14:11;;;;;;;0.60;0.60;;;11.70;99.90;;;;;;5090252;28;20184;-58
2023/12/25 07:16:39;;;;;;;0.73;0.73;;;11.70;99.90;;;;;;5089925;28;20196;-58
2023/12/25 07:19:08;;;;;;;0.80;0.80;;;11.70;99.90;;;;;;5090470;28;20219;-58
2023/12/25 07:21:37;;;;;;;0.80;0.80;;;11.70;99.90;;;;;;5089343;28;20223;-58
2023/12/25 07:24:06;;;;;;;0.70;0.70;;;11.70;99.90;;;;;;5089403;28;20223;-58
2023/12/25 07:26:34;;;;;;;0.80;0.80;;;11.70;99.90;;;;;;5090952;28;20238;-57
2023/12/25 07:29:02;;;;;;;0.70;0.70;;;11.70;99.90;;;;;;5088361;28;20184;-58
2023/12/25 07:31:30;;;;;;;0.80;0.80;;;11.70;99.90;;;;;;5088374;28;20203;-59
2023/12/25 07:33:59;;;;;;;0.80;0.80;;;11.70;99.90;;;;;;5092637;28;20219;-58
2023/12/25 07:36:28;;;;;;;0.70;0.70;;;11.70;99.90;;;;;;5089387;28;20265;-58
2023/12/25 07:38:57;;;;;;;0.83;0.83;;;11.70;99.90;;;;;;5087720;28;20229;-59
2023/12/25 07:41:25;;;;;;;0.87;0.87;;;11.70;99.90;;;;;;5090152;28;20223;-58
2023/12/25 07:44:30;;;;;;;0.83;0.83;;;11.70;99.90;;;;;;5089844;28;20261;-58
2023/12/25 07:46:58;;;;;;;0.90;0.90;;;11.70;99.90;;;;;;5090973;28;20215;-58
2023/12/25 07:49:26;;;;;;;1.13;0.80;;;11.70;99.90;;;;;;5089738;28;20195;-58
2023/12/25 07:51:56;;;;;;;0.80;0.80;;;11.60;99.90;;;;;;5093529;28;20223;-59
2023/12/25 07:54:24;;;;;;;0.97;0.93;;;11.60;99.90;;;;;;5089234;28;20280;-58
2023/12/25 07:56:53;;;;;;;0.90;0.90;;;11.70;99.90;;;;;;5087206;28;20219;-58
2023/12/25 07:59:22;;;;;;;0.73;0.73;;;11.70;99.90;;;;;;5090753;28;20227;-57
2023/12/25 08:01:50;;;;;;;0.77;0.77;;;11.70;99.90;;;;;;5091589;28;20198;-58
2023/12/25 08:04:18;;;;;;;0.80;0.80;;;11.70;99.90;;;;;;5088503;28;20222;-57
2023/12/25 08:06:47;;;;;;;0.83;0.83;;;11.70;99.90;;;;;;5093530;28;20249;-58
2023/12/25 08:09:20;;;;;;;0.90;0.90;;;11.70;99.90;;;;;;5092432;28;20224;-58
2023/12/25 08:11:48;;;;;;;0.90;0.90;;;11.70;99.90;;;;;;5089793;28;20207;-58
2023/12/25 08:14:16;;;;;;;0.80;0.80;;;11.70;99.90;;;;;;5088772;28;20195;-58
2023/12/25 08:16:44;;;;;;;1.73;0.90;;;11.70;99.90;;;;;;5090832;28;20206;-58
2023/12/25 08:19:13;;;;;;;1.60;0.70;;;11.70;99.90;;;;;;5085207;28;20238;-57
2023/12/25 08:21:41;;;;;;;0.80;0.80;;;11.70;99.90;;;;;;5084902;28;20234;-58
2023/12/25 08:24:10;;;;;;;1.00;1.00;;;11.70;99.90;;;;;;5088426;28;20553;-58
2023/12/25 08:26:39;;;;;;;0.83;0.83;;;11.70;99.90;;;;;;5086566;28;20222;-58
2023/12/25 08:29:07;;;;;;;0.70;0.70;;;11.70;99.90;;;;;;5088969;28;20195;-58
2023/12/25 08:31:39;;;;;;;0.83;0.83;;;11.70;99.90;;;;;;5090925;28;20201;-58
2023/12/25 08:34:07;;;;;;;0.80;0.80;;;11.70;99.90;;;;;;5088680;28;20230;-58
2023/12/25 08:36:36;;;;;;;1.20;1.10;;;11.80;99.90;;;;;;5088911;28;20230;-58
2023/12/25 08:39:05;;;;;;;0.90;0.90;;;11.80;99.90;;;;;;5086296;28;20226;-57
2023/12/25 08:41:33;;;;;;;0.90;0.90;;;11.80;99.90;;;;;;5089828;28;20667;-58
2023/12/25 08:44:03;;;;;;;0.90;0.90;;;11.70;99.90;;;;;;5087475;28;20196;-57
2023/12/25 08:46:31;;;;;;;0.90;0.90;;;11.80;99.90;;;;;;5088407;28;20191;-58
2023/12/25 08:49:00;;;;;;;0.90;0.90;;;11.80;99.90;;;;;;5087592;28;20997;-58
2023/12/25 08:51:29;;;;;;;1.30;0.90;;;11.80;99.90;;;;;;5089579;28;20230;-58
2023/12/25 08:53:57;;;;;;;1.43;0.83;;;11.80;99.90;;;;;;5089891;28;20219;-58
2023/12/25 08:56:27;;;;;;;0.83;0.83;;;11.80;99.90;;;;;;5085003;28;20230;-58
2023/12/25 08:58:57;;;;;;;0.90;0.90;;;11.80;99.90;;;;;;5084202;28;20196;-58
2023/12/25 09:01:26;;;;;;;0.80;0.80;;;11.90;99.90;;;;;;5087037;28;20219;-58
2023/12/25 09:03:55;;;;;;;2.77;0.90;;;11.90;99.90;;;;;;5087893;28;20242;-58
2023/12/25 09:06:23;;;;;;;0.90;0.90;;;11.90;99.90;;;;;;5083426;28;20252;-58
2023/12/25 09:08:52;;;;;;;0.87;0.87;;;11.90;99.90;;;;;;5085953;28;20219;-58
2023/12/25 09:11:20;;;;;;;0.90;0.90;;;12.00;99.90;;;;;;5087017;28;20211;-58
2023/12/25 09:13:49;;;;;;;0.83;0.83;;;12.00;99.90;;;;;;5087083;28;20259;-58
2023/12/25 09:16:16;;;;;;;0.80;0.80;;;12.00;99.90;;;;;;5084138;28;20211;-58
2023/12/25 09:18:46;;;;;;;0.90;0.90;;;12.00;99.90;;;;;;5084592;28;20219;-58
2023/12/25 09:21:17;;;;;;;0.80;0.80;;;12.10;99.90;;;;;;5088806;28;20211;-58
2023/12/25 09:23:45;;;;;;;1.10;1.10;;;12.10;99.90;;;;;;5087805;28;20322;-58
2023/12/25 09:26:19;;;;;;;1.10;1.10;;;12.10;99.90;;;;;;5084084;28;20227;-59
2023/12/25 09:28:48;;;;;;;1.70;0.90;;;12.10;99.90;;;;;;5090567;28;20204;-59
2023/12/25 09:31:16;;;;;;;0.83;0.83;;;12.10;99.90;;;;;;5080518;27;20215;-58
2023/12/25 09:33:46;;;;;;;0.83;0.83;;;12.20;99.90;;;;;;5085162;28;20257;-58
2023/12/25 09:36:15;;;;;;;0.83;0.83;;;12.20;99.90;;;;;;5088111;28;20257;-58
2023/12/25 09:38:43;;;;;;;0.90;0.90;;;12.20;99.90;;;;;;5085731;28;20245;-58
2023/12/25 09:41:12;;;;;;;0.80;0.80;;;12.30;99.90;;;;;;5084139;28;20195;-58
2023/12/25 09:43:43;;;;;;;1.10;1.00;;;12.30;99.90;;;;;;5086921;28;20199;-59
2023/12/25 09:46:12;;;;;;;0.90;0.90;;;12.20;99.90;;;;;;5092433;28;20219;-58
2023/12/25 09:48:40;;;;;;;1.00;1.00;;;12.20;99.90;;;;;;5090270;28;20207;-58
2023/12/25 09:51:12;;;;;;;0.70;0.70;;;12.30;99.90;;;;;;5089503;28;20276;-58
2023/12/25 09:53:40;;;;;;;0.87;0.87;;;12.30;99.90;;;;;;5088494;28;20226;-58
2023/12/25 09:56:12;;;;;;;0.80;0.80;;;12.20;99.90;;;;;;5090251;28;20191;-58
2023/12/25 09:58:44;;;;;;;1.10;1.07;;;12.30;99.90;;;;;;5090550;28;20226;-58
2023/12/25 10:01:14;;;;;;;1.07;1.07;;;12.30;99.90;;;;;;5089677;28;20238;-58
2023/12/25 10:03:45;;;;;;;1.80;1.27;;;12.30;99.90;;;;;;5093716;28;20231;-60
2023/12/25 10:06:15;;;;;;;0.93;0.93;;;12.30;99.90;;;;;;5088133;28;20310;-59
2023/12/25 10:08:43;;;;;;;1.07;1.00;;;12.30;99.90;;;;;;5101037;27;20215;-57
2023/12/25 10:11:14;;;;;;;1.00;1.00;;;12.30;99.90;;;;;;5087669;28;20279;-57
2023/12/25 10:13:43;;;;;;;1.10;1.10;;;12.30;99.90;;;;;;5091573;28;20183;-57
2023/12/25 10:16:12;;;;;;;1.00;1.00;;;12.30;99.90;;;;;;5089433;28;20312;-59
2023/12/25 10:18:40;;;;;;;1.10;1.10;;;12.30;99.90;;;;;;5086709;28;20674;-58
2023/12/25 10:21:10;;;;;;;1.37;1.03;;;12.30;99.90;;;;;;5092573;28;20231;-58
2023/12/25 10:23:40;;;;;;;1.07;1.07;;;12.30;99.90;;;;;;5086498;28;20219;-57
2023/12/25 10:26:09;;;;;;;1.07;1.07;;;12.30;99.90;;;;;;5089035;28;20671;-58
2023/12/25 10:28:37;;;;;;;1.03;1.03;;;12.30;99.90;;;;;;5092991;28;20203;-57
2023/12/25 10:31:07;;;;;;;1.33;1.30;;;12.30;99.90;;;;;;5091387;28;20226;-57
2023/12/25 10:33:36;;;;;;;1.23;1.23;;;12.30;99.90;;;;;;5087101;28;20220;-57
2023/12/25 10:36:07;;;;;;;1.17;1.17;;;12.30;99.90;;;;;;5088331;28;20574;-58
2023/12/25 10:38:36;;;;;;;1.07;1.07;;;12.30;99.90;;;;;;5092983;28;20226;-58
2023/12/25 10:41:20;;;;;;;1.90;1.20;;;12.40;99.90;;;;;;5089018;28;20779;-58
2023/12/25 10:43:52;;;;;;;1.50;1.40;;;12.40;99.90;;;;;;5091454;28;20198;-58
2023/12/25 10:46:23;;;;;;;3.67;1.40;;;12.40;99.90;;;;;;5084159;28;20220;-57
2023/12/25 10:48:53;;;;;;;1.30;1.20;;;12.40;99.90;;;;;;5087443;28;20581;-58
2023/12/25 10:51:27;;;;;;;1.17;1.17;;;12.40;99.90;;;;;;5088144;28;20211;-58
2023/12/25 10:53:59;;;;;;;1.20;1.20;;;12.40;99.90;;;;;;5089943;28;20744;-58
2023/12/25 10:56:32;;;;;;;1.20;1.20;;;12.30;99.90;;;;;;5088418;28;20212;-58
2023/12/25 10:59:06;;;;;;;1.50;1.30;;;12.40;99.90;;;;;;5087814;28;20207;-58
2023/12/25 11:01:37;;;;;;;2.10;1.30;;;12.40;99.90;;;;;;5087630;28;20565;-58
2023/12/25 11:04:05;;;;;;;1.40;1.40;;;12.40;99.90;;;;;;5084602;28;20233;-58
2023/12/25 11:06:35;;;;;;;1.43;1.43;;;12.30;99.90;;;;;;5090058;28;20219;-58
2023/12/25 11:09:04;;;;;;;2.50;1.40;;;12.30;99.90;;;;;;5089896;28;20211;-57
2023/12/25 11:11:35;;;;;;;1.30;1.30;;;12.30;99.90;;;;;;5086527;28;20251;-57
2023/12/25 11:14:06;;;;;;;1.67;1.40;;;12.30;99.90;;;;;;5085919;28;20199;-57
2023/12/25 11:16:35;;;;;;;2.10;1.40;;;12.20;99.90;;;;;;5092196;28;20207;-57
2023/12/25 11:19:04;;;;;;;1.10;1.10;;;12.30;99.90;;;;;;5082456;28;20261;-57
2023/12/25 11:21:34;;;;;;;1.37;1.27;;;12.30;99.90;;;;;;5084986;28;20314;-57
2023/12/25 11:24:03;;;;;;;2.30;1.50;;;12.30;99.90;;;;;;5091104;28;20244;-58
2023/12/25 11:26:32;;;;;;;2.33;1.50;;;12.30;99.90;;;;;;5085334;28;20296;-58
2023/12/25 11:29:03;;;;;;;1.93;1.30;;;12.30;99.90;;;;;;5089543;28;20711;-58
2023/12/25 11:31:43;;;;;;;1.63;1.53;;;12.30;99.90;;;;;;5088902;28;20265;-59
2023/12/25 11:34:22;;;;;;;2.13;1.47;;;12.30;99.90;;;;;;5088342;28;20219;-58
2023/12/25 11:36:56;;;;;;;1.63;1.40;;;12.30;99.90;;;;;;5086413;28;20207;-58
2023/12/25 11:39:25;;;;;;;1.60;1.17;;;12.30;99.90;;;;;;5088773;28;20211;-58
2023/12/25 11:41:53;;;;;;;2.00;1.50;;;12.30;99.90;;;;;;5090532;28;20600;-58
2023/12/25 11:44:32;;;;;;;3.47;1.37;;;12.30;99.90;;;;;;5087146;28;20219;-59
2023/12/25 11:47:02;;;;;;;1.50;1.40;;;12.30;99.90;;;;;;5085034;28;20215;-58
2023/12/25 11:49:33;;;;;;;2.70;1.50;;;12.30;99.90;;;;;;5090770;28;20308;-58
2023/12/25 11:52:01;;;;;;;1.40;1.30;;;12.30;99.90;;;;;;5083016;28;20673;-58
2023/12/25 11:54:30;;;;;;;2.50;1.60;;;12.40;99.90;;;;;;5087038;28;20220;-58
2023/12/25 11:57:00;;;;;;;1.50;1.40;;;12.40;99.90;;;;;;5089511;28;20228;-58
2023/12/25 11:59:28;;;;;;;1.50;1.40;;;12.40;99.90;;;;;;5086695;28;20228;-58
2023/12/25 12:01:58;;;;;;;2.13;1.53;;;12.40;99.90;;;;;;5089134;28;20578;-58
2023/12/25 12:04:26;;;;;;;1.33;1.23;;;12.40;99.90;;;;;;5093302;28;20221;-58
2023/12/25 12:06:56;;;;;;;4.77;1.37;;;12.40;99.90;;;;;;5090671;28;20800;-58
2023/12/25 12:09:24;;;;;;;2.03;1.33;;;12.40;99.90;;;;;;5088628;28;20213;-58
2023/12/25 12:11:52;;;;;;;3.63;1.30;;;12.40;99.90;;;;;;5089963;27;20233;-58
2023/12/25 12:14:22;;;;;;;2.70;1.60;;;12.50;99.90;;;;;;5088938;28;20799;-58
2023/12/25 12:16:51;;;;;;;1.93;1.50;;;12.40;99.90;;;;;;5091174;28;20237;-58
2023/12/25 12:19:21;;;;;;;2.70;1.40;;;12.50;99.90;;;;;;5087174;28;20215;-57
2023/12/25 12:21:50;;;;;;;2.30;1.50;;;12.40;99.90;;;;;;5091159;28;20223;-59
2023/12/25 12:24:27;;;;;;;2.60;1.53;;;12.40;99.90;;;;;;5086870;28;20615;-59
2023/12/25 12:27:02;;;;;;;1.60;1.50;;;12.40;99.90;;;;;;5090864;28;20324;-58
2023/12/25 12:29:31;;;;;;;1.80;1.70;;;12.40;99.90;;;;;;5091594;28;20218;-57
2023/12/25 12:31:59;;;;;;;1.50;1.50;;;12.30;99.90;;;;;;5091088;28;20196;-57
2023/12/25 12:34:29;;;;;;;3.20;1.80;;;12.30;99.90;;;;;;5089055;28;20203;-58
2023/12/25 12:36:59;;;;;;;2.27;1.90;;;12.30;99.90;;;;;;5083790;28;20242;-58
2023/12/25 12:39:27;;;;;;;1.70;1.67;;;12.30;99.90;;;;;;5079739;28;20227;-57
2023/12/25 12:41:56;;;;;;;1.70;1.60;;;12.30;99.90;;;;;;5081169;28;20220;-59
2023/12/25 12:44:25;;;;;;;2.50;1.57;;;12.30;99.90;;;;;;5087571;28;20227;-58
2023/12/25 12:46:54;;;;;;;2.10;1.77;;;12.30;99.90;;;;;;5090745;28;20207;-58
2023/12/25 12:49:23;;;;;;;3.50;1.90;;;12.30;99.90;;;;;;5084802;28;20661;-58
2023/12/25 12:51:54;;;;;;;3.33;2.00;;;12.30;99.90;;;;;;5088540;28;20215;-59
2023/12/25 12:54:23;;;;;;;2.20;2.00;;;12.30;99.90;;;;;;5090415;28;20584;-58
2023/12/25 12:56:51;;;;;;;2.10;1.73;;;12.30;99.90;;;;;;5084137;28;20219;-58
2023/12/25 12:59:19;;;;;;;2.50;1.97;;;12.30;99.90;;;;;;5088992;28;20254;-57